sensor_id;sensor_type;location;lat;lon;timestamp;temperature;humidity
59309;DHT22;48433;53.016;-2.260;2023-11-19T00:00:21;12.60;99.90
59309;DHT22;48433;53.016;-2.260;2023-11-19T00:02:49;12.70;99.90
59309;DHT22;48433;53.016;-2.260;2023-11-19T00:05:16;12.70;99.90
59309;DHT22;48433;53.016;-2.260;2023-11-19T00:07:44;12.70;99.90
59309;DHT22;48433;53.016;-2.260;2023-11-19T00:10:12;12.70;99.90
59309;DHT22;48433;53.016;-2.260;2023-11-19T00:12:41;12.70;99.90
59309;DHT22;48433;53.016;-2.260;2023-11-19T00:15:09;12.70;99.90
59309;DHT22;48433;53.016;-2.260;2023-11-19T00:17:39;12.70;99.90
59309;DHT22;48433;53.016;-2.260;2023-11-19T00:20:14;12.70;99.90
59309;DHT22;48433;53.016;-2.260;2023-11-19T00:22:42;12.70;99.90
59309;DHT22;48433;53.016;-2.260;2023-11-19T00:25:12;12.80;99.90
59309;DHT22;48433;53.016;-2.260;2023-11-19T00:27:40;12.80;99.90
59309;DHT22;48433;53.016;-2.260;2023-11-19T00:30:07;12.80;99.90
59309;DHT22;48433;53.016;-2.260;2023-11-19T00:32:37;12.80;99.90
59309;DHT22;48433;53.016;-2.260;2023-11-19T00:35:06;12.80;99.90
59309;DHT22;48433;53.016;-2.260;2023-11-19T00:37:34;12.70;99.90
59309;DHT22;48433;53.016;-2.260;2023-11-19T00:40:02;12.70;99.90
59309;DHT22;48433;53.016;-2.260;2023-11-19T00:42:32;12.70;99.90
59309;DHT22;48433;53.016;-2.260;2023-11-19T00:45:00;12.60;99.90
59309;DHT22;48433;53.016;-2.260;2023-11-19T00:47:29;12.60;99.90
59309;DHT22;48433;53.016;-2.260;2023-11-19T00:49:58;12.70;99.90
59309;DHT22;48433;53.016;-2.260;2023-11-19T00:52:25;12.70;99.90
59309;DHT22;48433;53.016;-2.260;2023-11-19T00:54:53;12.80;99.90
59309;DHT22;48433;53.016;-2.260;2023-11-19T00:57:21;12.80;99.90
59309;DHT22;48433;53.016;-2.260;2023-11-19T00:59:48;12.80;99.90
59309;DHT22;48433;53.016;-2.260;2023-11-19T01:02:15;12.90;99.90
59309;DHT22;48433;53.016;-2.260;2023-11-19T01:04:43;12.90;99.90
59309;DHT22;48433;53.016;-2.260;2023-11-19T01:07:11;12.90;99.90
59309;DHT22;48433;53.016;-2.260;2023-11-19T01:09:43;12.90;99.90
59309;DHT22;48433;53.016;-2.260;2023-11-19T01:12:10;13.00;99.90
59309;DHT22;48433;53.016;-2.260;2023-11-19T01:14:38;12.90;99.90
59309;DHT22;48433;53.016;-2.260;2023-11-19T01:17:05;13.00;99.90
59309;DHT22;48433;53.016;-2.260;2023-11-19T01:19:34;13.00;99.90
59309;DHT22;48433;53.016;-2.260;2023-11-19T01:22:02;13.00;99.90
59309;DHT22;48433;53.016;-2.260;2023-11-19T01:24:30;13.00;99.90
59309;DHT22;48433;53.016;-2.260;2023-11-19T01:26:58;13.00;99.90
59309;DHT22;48433;53.016;-2.260;2023-11-19T01:29:27;13.00;99.90
59309;DHT22;48433;53.016;-2.260;2023-11-19T01:31:54;13.00;99.90
59309;DHT22;48433;53.016;-2.260;2023-11-19T01:34:22;13.00;99.90
59309;DHT22;48433;53.016;-2.260;2023-11-19T01:36:50;13.00;99.90
59309;DHT22;48433;53.016;-2.260;2023-11-19T01:39:17;13.00;99.90
59309;DHT22;48433;53.016;-2.260;2023-11-19T01:41:47;13.10;99.90
59309;DHT22;48433;53.016;-2.260;2023-11-19T01:44:14;13.10;99.90
59309;DHT22;48433;53.016;-2.260;2023-11-19T01:46:42;13.00;99.90
59309;DHT22;48433;53.016;-2.260;2023-11-19T01:49:11;13.00;99.90
59309;DHT22;48433;53.016;-2.260;2023-11-19T01:51:39;13.00;99.90
59309;DHT22;48433;53.016;-2.260;2023-11-19T01:54:07;13.00;99.90
59309;DHT22;48433;53.016;-2.260;2023-11-19T01:56:36;13.00;99.90
59309;DHT22;48433;53.016;-2.260;2023-11-19T01:59:05;13.00;99.90
59309;DHT22;48433;53.016;-2.260;2023-11-19T02:01:33;13.00;99.90
59309;DHT22;48433;53.016;-2.260;2023-11-19T02:04:06;13.00;99.90
59309;DHT22;48433;53.016;-2.260;2023-11-19T02:06:34;13.00;99.90
59309;DHT22;48433;53.016;-2.260;2023-11-19T02:09:01;13.00;99.90
59309;DHT22;48433;53.016;-2.260;2023-11-19T02:11:35;13.00;99.90
59309;DHT22;48433;53.016;-2.260;2023-11-19T02:14:02;12.90;99.90
59309;DHT22;48433;53.016;-2.260;2023-11-19T02:16:34;12.90;99.90
59309;DHT22;48433;53.016;-2.260;2023-11-19T02:19:02;12.80;99.90
59309;DHT22;48433;53.016;-2.260;2023-11-19T02:21:31;12.80;99.90
59309;DHT22;48433;53.016;-2.260;2023-11-19T02:23:58;12.70;99.90
59309;DHT22;48433;53.016;-2.260;2023-11-19T02:26:30;12.70;99.90
59309;DHT22;48433;53.016;-2.260;2023-11-19T02:29:00;12.70;99.90
59309;DHT22;48433;53.016;-2.260;2023-11-19T02:31:27;12.70;99.90
59309;DHT22;48433;53.016;-2.260;2023-11-19T02:33:55;12.70;99.90
59309;DHT22;48433;53.016;-2.260;2023-11-19T02:36:22;12.70;99.90
59309;DHT22;48433;53.016;-2.260;2023-11-19T02:38:50;12.70;99.90
59309;DHT22;48433;53.016;-2.260;2023-11-19T02:41:17;12.70;99.90
59309;DHT22;48433;53.016;-2.260;2023-11-19T02:43:44;12.60;99.90
59309;DHT22;48433;53.016;-2.260;2023-11-19T02:46:12;12.60;99.90
59309;DHT22;48433;53.016;-2.260;2023-11-19T02:48:42;12.60;99.90
59309;DHT22;48433;53.016;-2.260;2023-11-19T02:51:11;12.50;99.90
59309;DHT22;48433;53.016;-2.260;2023-11-19T02:53:39;12.60;99.90
59309;DHT22;48433;53.016;-2.260;2023-11-19T02:56:08;12.60;99.90
59309;DHT22;48433;53.016;-2.260;2023-11-19T02:58:53;12.50;99.90
59309;DHT22;48433;53.016;-2.260;2023-11-19T03:01:21;12.40;99.90
59309;DHT22;48433;53.016;-2.260;2023-11-19T03:03:56;12.10;99.90
59309;DHT22;48433;53.016;-2.260;2023-11-19T03:06:25;12.00;99.90
59309;DHT22;48433;53.016;-2.260;2023-11-19T03:08:54;11.80;99.90
59309;DHT22;48433;53.016;-2.260;2023-11-19T03:11:22;11.70;99.90
59309;DHT22;48433;53.016;-2.260;2023-11-19T03:13:50;11.60;99.90
59309;DHT22;48433;53.016;-2.260;2023-11-19T03:16:17;11.60;99.90
59309;DHT22;48433;53.016;-2.260;2023-11-19T03:18:45;11.50;99.90
59309;DHT22;48433;53.016;-2.260;2023-11-19T03:21:13;11.60;99.90
59309;DHT22;48433;53.016;-2.260;2023-11-19T03:23:41;11.60;99.90
59309;DHT22;48433;53.016;-2.260;2023-11-19T03:26:10;11.60;99.90
59309;DHT22;48433;53.016;-2.260;2023-11-19T03:28:37;11.70;99.90
59309;DHT22;48433;53.016;-2.260;2023-11-19T03:31:05;11.70;99.90
59309;DHT22;48433;53.016;-2.260;2023-11-19T03:33:36;11.80;99.90
59309;DHT22;48433;53.016;-2.260;2023-11-19T03:36:05;11.80;99.90
59309;DHT22;48433;53.016;-2.260;2023-11-19T03:38:33;11.80;99.90
59309;DHT22;48433;53.016;-2.260;2023-11-19T03:41:00;11.90;99.90
59309;DHT22;48433;53.016;-2.260;2023-11-19T03:43:27;11.90;99.90
59309;DHT22;48433;53.016;-2.260;2023-11-19T03:45:55;11.80;99.90
59309;DHT22;48433;53.016;-2.260;2023-11-19T03:48:23;11.80;99.90
59309;DHT22;48433;53.016;-2.260;2023-11-19T03:50:50;11.80;99.90
59309;DHT22;48433;53.016;-2.260;2023-11-19T03:53:17;11.70;99.90
59309;DHT22;48433;53.016;-2.260;2023-11-19T03:55:46;11.70;99.90
59309;DHT22;48433;53.016;-2.260;2023-11-19T03:58:13;11.60;99.90
59309;DHT22;48433;53.016;-2.260;2023-11-19T04:00:41;11.40;99.90
59309;DHT22;48433;53.016;-2.260;2023-11-19T04:03:08;11.30;99.90
59309;DHT22;48433;53.016;-2.260;2023-11-19T04:05:37;11.20;99.90
59309;DHT22;48433;53.016;-2.260;2023-11-19T04:08:04;11.20;99.90
59309;DHT22;48433;53.016;-2.260;2023-11-19T04:10:32;11.10;99.90
59309;DHT22;48433;53.016;-2.260;2023-11-19T04:13:00;11.10;99.90
59309;DHT22;48433;53.016;-2.260;2023-11-19T04:15:28;11.10;99.90
59309;DHT22;48433;53.016;-2.260;2023-11-19T04:17:56;11.10;99.90
59309;DHT22;48433;53.016;-2.260;2023-11-19T04:20:23;11.10;99.90
59309;DHT22;48433;53.016;-2.260;2023-11-19T04:22:51;11.20;99.90
59309;DHT22;48433;53.016;-2.260;2023-11-19T04:25:18;11.20;99.90
59309;DHT22;48433;53.016;-2.260;2023-11-19T04:27:46;11.20;99.90
59309;DHT22;48433;53.016;-2.260;2023-11-19T04:30:15;11.20;99.90
59309;DHT22;48433;53.016;-2.260;2023-11-19T04:32:42;11.20;99.90
59309;DHT22;48433;53.016;-2.260;2023-11-19T04:35:10;11.20;99.90
59309;DHT22;48433;53.016;-2.260;2023-11-19T04:37:38;11.20;99.90
59309;DHT22;48433;53.016;-2.260;2023-11-19T04:40:06;11.20;99.90
59309;DHT22;48433;53.016;-2.260;2023-11-19T04:42:34;11.20;99.90
59309;DHT22;48433;53.016;-2.260;2023-11-19T04:45:02;11.20;99.90
59309;DHT22;48433;53.016;-2.260;2023-11-19T04:47:30;11.20;99.90
59309;DHT22;48433;53.016;-2.260;2023-11-19T04:49:57;11.20;99.90
59309;DHT22;48433;53.016;-2.260;2023-11-19T04:52:25;11.10;99.90
59309;DHT22;48433;53.016;-2.260;2023-11-19T04:54:52;11.10;99.90
59309;DHT22;48433;53.016;-2.260;2023-11-19T04:57:20;11.10;99.90
59309;DHT22;48433;53.016;-2.260;2023-11-19T04:59:47;11.10;99.90
59309;DHT22;48433;53.016;-2.260;2023-11-19T05:02:15;11.10;99.90
59309;DHT22;48433;53.016;-2.260;2023-11-19T05:04:43;11.10;99.90
59309;DHT22;48433;53.016;-2.260;2023-11-19T05:07:11;11.20;99.90
59309;DHT22;48433;53.016;-2.260;2023-11-19T05:09:39;11.20;99.90
59309;DHT22;48433;53.016;-2.260;2023-11-19T05:12:06;11.20;99.90
59309;DHT22;48433;53.016;-2.260;2023-11-19T05:14:37;11.20;99.90
59309;DHT22;48433;53.016;-2.260;2023-11-19T05:17:04;11.30;99.90
59309;DHT22;48433;53.016;-2.260;2023-11-19T05:19:32;11.30;99.90
59309;DHT22;48433;53.016;-2.260;2023-11-19T05:21:59;11.40;99.90
59309;DHT22;48433;53.016;-2.260;2023-11-19T05:24:27;11.30;99.90
59309;DHT22;48433;53.016;-2.260;2023-11-19T05:26:55;11.30;99.90
59309;DHT22;48433;53.016;-2.260;2023-11-19T05:29:23;11.30;99.90
59309;DHT22;48433;53.016;-2.260;2023-11-19T05:31:51;11.20;99.90
59309;DHT22;48433;53.016;-2.260;2023-11-19T05:34:18;11.20;99.90
59309;DHT22;48433;53.016;-2.260;2023-11-19T05:36:46;11.20;99.90
59309;DHT22;48433;53.016;-2.260;2023-11-19T05:39:13;11.20;99.90
59309;DHT22;48433;53.016;-2.260;2023-11-19T05:41:40;11.20;99.90
59309;DHT22;48433;53.016;-2.260;2023-11-19T05:44:08;13.20;99.90
59309;DHT22;48433;53.016;-2.260;2023-11-19T05:46:35;11.20;99.90
59309;DHT22;48433;53.016;-2.260;2023-11-19T05:49:08;11.20;99.90
59309;DHT22;48433;53.016;-2.260;2023-11-19T05:51:36;11.20;99.90
59309;DHT22;48433;53.016;-2.260;2023-11-19T05:54:04;11.20;99.90
59309;DHT22;48433;53.016;-2.260;2023-11-19T05:56:33;11.20;99.90
59309;DHT22;48433;53.016;-2.260;2023-11-19T05:59:01;11.20;99.90
59309;DHT22;48433;53.016;-2.260;2023-11-19T06:01:30;11.20;99.90
59309;DHT22;48433;53.016;-2.260;2023-11-19T06:03:58;11.20;99.90
59309;DHT22;48433;53.016;-2.260;2023-11-19T06:06:28;11.20;99.90
59309;DHT22;48433;53.016;-2.260;2023-11-19T06:08:56;11.20;99.90
59309;DHT22;48433;53.016;-2.260;2023-11-19T06:11:23;11.10;99.90
59309;DHT22;48433;53.016;-2.260;2023-11-19T06:13:54;11.10;99.90
59309;DHT22;48433;53.016;-2.260;2023-11-19T06:16:21;11.20;99.90
59309;DHT22;48433;53.016;-2.260;2023-11-19T06:18:49;11.20;99.90
59309;DHT22;48433;53.016;-2.260;2023-11-19T06:21:16;11.20;99.90
59309;DHT22;48433;53.016;-2.260;2023-11-19T06:23:44;11.20;99.90
59309;DHT22;48433;53.016;-2.260;2023-11-19T06:26:11;11.20;99.90
59309;DHT22;48433;53.016;-2.260;2023-11-19T06:28:39;11.20;99.90
59309;DHT22;48433;53.016;-2.260;2023-11-19T06:31:06;11.20;99.90
59309;DHT22;48433;53.016;-2.260;2023-11-19T06:33:34;11.20;99.90
59309;DHT22;48433;53.016;-2.260;2023-11-19T06:36:01;11.30;99.90
59309;DHT22;48433;53.016;-2.260;2023-11-19T06:38:28;12.70;99.90
59309;DHT22;48433;53.016;-2.260;2023-11-19T06:40:56;11.30;99.90
59309;DHT22;48433;53.016;-2.260;2023-11-19T06:43:23;11.30;99.90
59309;DHT22;48433;53.016;-2.260;2023-11-19T06:45:51;12.70;99.90
59309;DHT22;48433;53.016;-2.260;2023-11-19T06:48:18;11.40;99.90
59309;DHT22;48433;53.016;-2.260;2023-11-19T06:50:46;11.40;99.90
59309;DHT22;48433;53.016;-2.260;2023-11-19T06:53:13;11.50;99.90
59309;DHT22;48433;53.016;-2.260;2023-11-19T06:55:40;11.40;99.90
59309;DHT22;48433;53.016;-2.260;2023-11-19T06:58:08;11.50;99.90
59309;DHT22;48433;53.016;-2.260;2023-11-19T07:00:35;11.40;99.90
59309;DHT22;48433;53.016;-2.260;2023-11-19T07:03:03;11.40;99.90
59309;DHT22;48433;53.016;-2.260;2023-11-19T07:05:31;11.40;99.90
59309;DHT22;48433;53.016;-2.260;2023-11-19T07:07:59;11.40;99.90
59309;DHT22;48433;53.016;-2.260;2023-11-19T07:10:26;11.40;99.90
59309;DHT22;48433;53.016;-2.260;2023-11-19T07:12:54;11.40;99.90
59309;DHT22;48433;53.016;-2.260;2023-11-19T07:15:21;11.40;99.90
59309;DHT22;48433;53.016;-2.260;2023-11-19T07:17:49;11.40;99.90
59309;DHT22;48433;53.016;-2.260;2023-11-19T07:20:29;11.40;99.90
59309;DHT22;48433;53.016;-2.260;2023-11-19T07:22:56;11.40;99.90
59309;DHT22;48433;53.016;-2.260;2023-11-19T07:25:24;11.40;99.90
59309;DHT22;48433;53.016;-2.260;2023-11-19T07:27:52;11.40;99.90
59309;DHT22;48433;53.016;-2.260;2023-11-19T07:30:20;11.40;99.90
59309;DHT22;48433;53.016;-2.260;2023-11-19T07:32:47;11.50;99.90
59309;DHT22;48433;53.016;-2.260;2023-11-19T07:35:16;11.50;99.90
59309;DHT22;48433;53.016;-2.260;2023-11-19T07:37:44;11.50;99.90
59309;DHT22;48433;53.016;-2.260;2023-11-19T07:40:15;11.60;99.90
59309;DHT22;48433;53.016;-2.260;2023-11-19T07:42:42;11.60;99.90
59309;DHT22;48433;53.016;-2.260;2023-11-19T07:45:09;13.30;99.90
59309;DHT22;48433;53.016;-2.260;2023-11-19T07:47:37;11.70;99.90
59309;DHT22;48433;53.016;-2.260;2023-11-19T07:50:06;11.80;99.90
59309;DHT22;48433;53.016;-2.260;2023-11-19T07:52:33;11.80;99.90
59309;DHT22;48433;53.016;-2.260;2023-11-19T07:55:01;11.80;99.90
59309;DHT22;48433;53.016;-2.260;2023-11-19T07:57:28;11.80;99.90
59309;DHT22;48433;53.016;-2.260;2023-11-19T07:59:58;11.90;99.90
59309;DHT22;48433;53.016;-2.260;2023-11-19T08:04:53;11.90;99.90
59309;DHT22;48433;53.016;-2.260;2023-11-19T08:07:22;11.50;99.90
59309;DHT22;48433;53.016;-2.260;2023-11-19T08:09:50;11.90;99.90
59309;DHT22;48433;53.016;-2.260;2023-11-19T08:12:17;12.00;99.90
59309;DHT22;48433;53.016;-2.260;2023-11-19T08:14:45;12.00;99.90
59309;DHT22;48433;53.016;-2.260;2023-11-19T08:17:12;12.00;99.90
59309;DHT22;48433;53.016;-2.260;2023-11-19T08:19:39;12.00;99.90
59309;DHT22;48433;53.016;-2.260;2023-11-19T08:22:07;12.00;99.90
59309;DHT22;48433;53.016;-2.260;2023-11-19T08:24:36;12.00;99.90
59309;DHT22;48433;53.016;-2.260;2023-11-19T08:27:03;12.10;99.90
59309;DHT22;48433;53.016;-2.260;2023-11-19T08:29:32;12.10;99.90
59309;DHT22;48433;53.016;-2.260;2023-11-19T08:32:02;12.10;99.90
59309;DHT22;48433;53.016;-2.260;2023-11-19T08:34:30;12.20;99.90
59309;DHT22;48433;53.016;-2.260;2023-11-19T08:36:58;12.20;99.90
59309;DHT22;48433;53.016;-2.260;2023-11-19T08:39:26;12.20;99.90
59309;DHT22;48433;53.016;-2.260;2023-11-19T08:41:53;12.30;99.90
59309;DHT22;48433;53.016;-2.260;2023-11-19T08:44:22;12.30;99.90
59309;DHT22;48433;53.016;-2.260;2023-11-19T08:46:50;12.30;99.90
59309;DHT22;48433;53.016;-2.260;2023-11-19T08:49:17;12.40;99.90
59309;DHT22;48433;53.016;-2.260;2023-11-19T08:51:45;12.40;99.90
59309;DHT22;48433;53.016;-2.260;2023-11-19T08:54:12;12.40;99.90
59309;DHT22;48433;53.016;-2.260;2023-11-19T08:56:41;12.30;99.90
59309;DHT22;48433;53.016;-2.260;2023-11-19T08:59:08;12.30;99.90
59309;DHT22;48433;53.016;-2.260;2023-11-19T09:01:36;12.30;99.90
59309;DHT22;48433;53.016;-2.260;2023-11-19T09:04:03;12.30;99.90
59309;DHT22;48433;53.016;-2.260;2023-11-19T09:06:32;12.30;99.90
59309;DHT22;48433;53.016;-2.260;2023-11-19T09:08:59;12.30;99.90
59309;DHT22;48433;53.016;-2.260;2023-11-19T09:11:30;12.40;99.90
59309;DHT22;48433;53.016;-2.260;2023-11-19T09:13:58;12.50;99.90
59309;DHT22;48433;53.016;-2.260;2023-11-19T09:16:25;12.50;99.90
59309;DHT22;48433;53.016;-2.260;2023-11-19T09:18:53;12.50;99.90
59309;DHT22;48433;53.016;-2.260;2023-11-19T09:21:20;12.50;99.90
59309;DHT22;48433;53.016;-2.260;2023-11-19T09:23:47;12.50;99.90
59309;DHT22;48433;53.016;-2.260;2023-11-19T09:26:16;12.50;99.90
59309;DHT22;48433;53.016;-2.260;2023-11-19T09:28:44;12.60;99.90
59309;DHT22;48433;53.016;-2.260;2023-11-19T09:31:17;12.60;99.90
59309;DHT22;48433;53.016;-2.260;2023-11-19T09:33:45;12.70;99.90
59309;DHT22;48433;53.016;-2.260;2023-11-19T09:36:13;12.70;99.90
59309;DHT22;48433;53.016;-2.260;2023-11-19T09:38:44;12.80;99.90
59309;DHT22;48433;53.016;-2.260;2023-11-19T09:41:11;12.80;99.90
59309;DHT22;48433;53.016;-2.260;2023-11-19T09:43:40;12.90;99.90
59309;DHT22;48433;53.016;-2.260;2023-11-19T09:46:12;12.90;99.90
59309;DHT22;48433;53.016;-2.260;2023-11-19T09:48:41;12.90;99.90
59309;DHT22;48433;53.016;-2.260;2023-11-19T09:51:09;13.00;99.90
59309;DHT22;48433;53.016;-2.260;2023-11-19T09:53:37;13.00;99.90
59309;DHT22;48433;53.016;-2.260;2023-11-19T09:56:05;13.00;99.90
59309;DHT22;48433;53.016;-2.260;2023-11-19T09:58:33;13.00;99.90
59309;DHT22;48433;53.016;-2.260;2023-11-19T10:01:01;13.10;99.90
59309;DHT22;48433;53.016;-2.260;2023-11-19T10:03:33;13.10;99.90
59309;DHT22;48433;53.016;-2.260;2023-11-19T10:06:07;13.10;99.90
59309;DHT22;48433;53.016;-2.260;2023-11-19T10:08:38;13.10;99.90
59309;DHT22;48433;53.016;-2.260;2023-11-19T10:11:09;13.10;99.90
59309;DHT22;48433;53.016;-2.260;2023-11-19T10:13:39;13.20;99.90
59309;DHT22;48433;53.016;-2.260;2023-11-19T10:16:09;13.10;99.90
59309;DHT22;48433;53.016;-2.260;2023-11-19T10:18:49;13.10;99.90
59309;DHT22;48433;53.016;-2.260;2023-11-19T10:21:18;13.10;99.90
59309;DHT22;48433;53.016;-2.260;2023-11-19T10:23:52;13.00;99.90
59309;DHT22;48433;53.016;-2.260;2023-11-19T10:26:20;13.00;99.90
59309;DHT22;48433;53.016;-2.260;2023-11-19T10:28:48;13.00;99.90
59309;DHT22;48433;53.016;-2.260;2023-11-19T10:31:16;12.90;99.90
59309;DHT22;48433;53.016;-2.260;2023-11-19T10:33:44;13.00;99.90
59309;DHT22;48433;53.016;-2.260;2023-11-19T10:36:13;13.00;99.90
59309;DHT22;48433;53.016;-2.260;2023-11-19T10:38:40;13.00;99.90
59309;DHT22;48433;53.016;-2.260;2023-11-19T10:41:08;13.10;99.90
59309;DHT22;48433;53.016;-2.260;2023-11-19T10:43:44;13.20;99.90
59309;DHT22;48433;53.016;-2.260;2023-11-19T10:46:12;13.20;99.90
59309;DHT22;48433;53.016;-2.260;2023-11-19T10:48:40;13.30;99.90
59309;DHT22;48433;53.016;-2.260;2023-11-19T10:51:08;13.30;99.90
59309;DHT22;48433;53.016;-2.260;2023-11-19T10:53:38;13.40;99.90
59309;DHT22;48433;53.016;-2.260;2023-11-19T10:56:08;13.40;99.90
59309;DHT22;48433;53.016;-2.260;2023-11-19T10:58:38;13.50;99.90
59309;DHT22;48433;53.016;-2.260;2023-11-19T11:01:12;13.60;99.90
59309;DHT22;48433;53.016;-2.260;2023-11-19T11:03:41;13.60;99.90
59309;DHT22;48433;53.016;-2.260;2023-11-19T11:06:10;13.60;99.90
59309;DHT22;48433;53.016;-2.260;2023-11-19T11:08:37;13.60;99.90
59309;DHT22;48433;53.016;-2.260;2023-11-19T11:11:07;13.60;99.90
59309;DHT22;48433;53.016;-2.260;2023-11-19T11:13:35;13.60;99.90
59309;DHT22;48433;53.016;-2.260;2023-11-19T11:16:04;13.50;99.90
59309;DHT22;48433;53.016;-2.260;2023-11-19T11:18:35;13.60;99.90
59309;DHT22;48433;53.016;-2.260;2023-11-19T11:21:13;13.50;99.90
59309;DHT22;48433;53.016;-2.260;2023-11-19T11:23:50;13.60;99.90
59309;DHT22;48433;53.016;-2.260;2023-11-19T11:31:26;13.60;99.90
59309;DHT22;48433;53.016;-2.260;2023-11-19T11:36:53;13.60;99.90
59309;DHT22;48433;53.016;-2.260;2023-11-19T11:39:23;13.60;99.90
59309;DHT22;48433;53.016;-2.260;2023-11-19T11:42:30;13.50;99.90
59309;DHT22;48433;53.016;-2.260;2023-11-19T11:45:02;13.50;99.90
59309;DHT22;48433;53.016;-2.260;2023-11-19T11:48:15;13.50;99.90
59309;DHT22;48433;53.016;-2.260;2023-11-19T11:50:23;13.50;99.90
59309;DHT22;48433;53.016;-2.260;2023-11-19T11:57:53;13.40;99.90
59309;DHT22;48433;53.016;-2.260;2023-11-19T12:00:21;13.40;99.90
59309;DHT22;48433;53.016;-2.260;2023-11-19T12:02:49;13.50;99.90
59309;DHT22;48433;53.016;-2.260;2023-11-19T12:05:17;13.50;99.90
59309;DHT22;48433;53.016;-2.260;2023-11-19T12:07:54;13.60;99.90
59309;DHT22;48433;53.016;-2.260;2023-11-19T12:10:21;13.60;99.90
59309;DHT22;48433;53.016;-2.260;2023-11-19T12:12:58;13.70;99.90
59309;DHT22;48433;53.016;-2.260;2023-11-19T12:15:25;13.70;99.90
59309;DHT22;48433;53.016;-2.260;2023-11-19T12:17:54;13.70;99.90
59309;DHT22;48433;53.016;-2.260;2023-11-19T12:20:23;13.70;99.90
59309;DHT22;48433;53.016;-2.260;2023-11-19T12:22:53;13.80;99.90
59309;DHT22;48433;53.016;-2.260;2023-11-19T12:25:21;13.80;99.90
59309;DHT22;48433;53.016;-2.260;2023-11-19T12:27:50;13.90;99.90
59309;DHT22;48433;53.016;-2.260;2023-11-19T12:30:25;14.00;99.90
59309;DHT22;48433;53.016;-2.260;2023-11-19T12:32:54;14.10;99.90
59309;DHT22;48433;53.016;-2.260;2023-11-19T12:35:22;14.10;99.90
59309;DHT22;48433;53.016;-2.260;2023-11-19T12:37:51;14.10;99.90
59309;DHT22;48433;53.016;-2.260;2023-11-19T12:40:21;14.20;99.90
59309;DHT22;48433;53.016;-2.260;2023-11-19T12:42:49;14.20;99.90
59309;DHT22;48433;53.016;-2.260;2023-11-19T12:45:17;14.20;99.90
59309;DHT22;48433;53.016;-2.260;2023-11-19T12:47:46;14.20;99.90
59309;DHT22;48433;53.016;-2.260;2023-11-19T12:50:19;14.20;99.90
59309;DHT22;48433;53.016;-2.260;2023-11-19T12:53:05;14.20;99.90
59309;DHT22;48433;53.016;-2.260;2023-11-19T12:55:32;14.10;99.90
59309;DHT22;48433;53.016;-2.260;2023-11-19T12:58:00;14.10;99.90
59309;DHT22;48433;53.016;-2.260;2023-11-19T13:00:28;14.00;99.90
59309;DHT22;48433;53.016;-2.260;2023-11-19T13:02:56;13.90;99.90
59309;DHT22;48433;53.016;-2.260;2023-11-19T13:08:01;13.80;99.90
59309;DHT22;48433;53.016;-2.260;2023-11-19T13:10:30;13.80;99.90
59309;DHT22;48433;53.016;-2.260;2023-11-19T13:13:02;13.70;99.90
59309;DHT22;48433;53.016;-2.260;2023-11-19T13:15:30;13.60;99.90
59309;DHT22;48433;53.016;-2.260;2023-11-19T13:17:57;13.60;99.90
59309;DHT22;48433;53.016;-2.260;2023-11-19T13:20:25;13.60;99.90
59309;DHT22;48433;53.016;-2.260;2023-11-19T13:25:23;13.70;99.90
59309;DHT22;48433;53.016;-2.260;2023-11-19T13:27:51;13.60;99.90
59309;DHT22;48433;53.016;-2.260;2023-11-19T13:30:19;13.60;99.90
59309;DHT22;48433;53.016;-2.260;2023-11-19T13:32:50;13.60;99.90
59309;DHT22;48433;53.016;-2.260;2023-11-19T13:35:18;13.60;99.90
59309;DHT22;48433;53.016;-2.260;2023-11-19T13:37:45;13.70;99.90
59309;DHT22;48433;53.016;-2.260;2023-11-19T13:40:13;13.70;99.90
59309;DHT22;48433;53.016;-2.260;2023-11-19T13:42:44;13.70;99.90
59309;DHT22;48433;53.016;-2.260;2023-11-19T13:45:12;13.70;99.90
59309;DHT22;48433;53.016;-2.260;2023-11-19T13:47:41;13.70;99.90
59309;DHT22;48433;53.016;-2.260;2023-11-19T13:50:12;13.70;99.90
59309;DHT22;48433;53.016;-2.260;2023-11-19T13:52:41;13.80;99.90
59309;DHT22;48433;53.016;-2.260;2023-11-19T13:55:16;13.80;99.90
59309;DHT22;48433;53.016;-2.260;2023-11-19T13:57:45;13.90;99.90
59309;DHT22;48433;53.016;-2.260;2023-11-19T14:00:14;13.90;99.90
59309;DHT22;48433;53.016;-2.260;2023-11-19T14:02:44;14.00;99.90
59309;DHT22;48433;53.016;-2.260;2023-11-19T14:05:12;14.00;99.90
59309;DHT22;48433;53.016;-2.260;2023-11-19T14:07:40;14.00;99.90
59309;DHT22;48433;53.016;-2.260;2023-11-19T14:10:07;14.10;99.90
59309;DHT22;48433;53.016;-2.260;2023-11-19T14:12:44;14.10;99.90
59309;DHT22;48433;53.016;-2.260;2023-11-19T14:15:12;14.10;99.90
59309;DHT22;48433;53.016;-2.260;2023-11-19T14:17:40;14.20;99.90
59309;DHT22;48433;53.016;-2.260;2023-11-19T14:20:07;14.20;99.90
59309;DHT22;48433;53.016;-2.260;2023-11-19T14:22:43;14.30;99.90
59309;DHT22;48433;53.016;-2.260;2023-11-19T14:25:11;14.20;99.90
59309;DHT22;48433;53.016;-2.260;2023-11-19T14:27:41;14.20;99.90
59309;DHT22;48433;53.016;-2.260;2023-11-19T14:30:10;14.10;99.90
59309;DHT22;48433;53.016;-2.260;2023-11-19T14:32:41;14.20;99.90
59309;DHT22;48433;53.016;-2.260;2023-11-19T14:35:13;14.10;99.90
59309;DHT22;48433;53.016;-2.260;2023-11-19T14:37:40;14.10;99.90
59309;DHT22;48433;53.016;-2.260;2023-11-19T14:40:08;14.10;99.90
59309;DHT22;48433;53.016;-2.260;2023-11-19T14:42:38;14.10;99.90
59309;DHT22;48433;53.016;-2.260;2023-11-19T14:45:06;14.10;99.90
59309;DHT22;48433;53.016;-2.260;2023-11-19T14:47:34;14.10;99.90
59309;DHT22;48433;53.016;-2.260;2023-11-19T14:50:02;14.10;99.90
59309;DHT22;48433;53.016;-2.260;2023-11-19T14:52:30;14.10;99.90
59309;DHT22;48433;53.016;-2.260;2023-11-19T14:54:58;14.10;99.90
59309;DHT22;48433;53.016;-2.260;2023-11-19T14:57:26;14.00;99.90
59309;DHT22;48433;53.016;-2.260;2023-11-19T14:59:54;14.00;99.90
59309;DHT22;48433;53.016;-2.260;2023-11-19T15:02:22;14.00;99.90
59309;DHT22;48433;53.016;-2.260;2023-11-19T15:04:49;14.00;99.90
59309;DHT22;48433;53.016;-2.260;2023-11-19T15:07:18;14.10;99.90
59309;DHT22;48433;53.016;-2.260;2023-11-19T15:09:45;14.10;99.90
59309;DHT22;48433;53.016;-2.260;2023-11-19T15:12:13;14.10;99.90
59309;DHT22;48433;53.016;-2.260;2023-11-19T15:14:41;14.10;99.90
59309;DHT22;48433;53.016;-2.260;2023-11-19T15:17:09;14.10;99.90
59309;DHT22;48433;53.016;-2.260;2023-11-19T15:19:36;14.10;99.90
59309;DHT22;48433;53.016;-2.260;2023-11-19T15:22:04;14.00;99.90
59309;DHT22;48433;53.016;-2.260;2023-11-19T15:24:33;14.10;99.90
59309;DHT22;48433;53.016;-2.260;2023-11-19T15:27:05;14.00;99.90
59309;DHT22;48433;53.016;-2.260;2023-11-19T15:29:39;14.00;99.90
59309;DHT22;48433;53.016;-2.260;2023-11-19T15:32:07;14.00;99.90
59309;DHT22;48433;53.016;-2.260;2023-11-19T15:34:34;14.00;99.90
59309;DHT22;48433;53.016;-2.260;2023-11-19T15:37:05;14.10;99.90
59309;DHT22;48433;53.016;-2.260;2023-11-19T15:39:33;14.00;99.90
59309;DHT22;48433;53.016;-2.260;2023-11-19T15:42:03;14.00;99.90
59309;DHT22;48433;53.016;-2.260;2023-11-19T15:44:31;14.00;99.90